sensor_id;sensor_type;location;lat;lon;timestamp;pressure;altitude;pressure_sealevel;temperature;humidity
26865;BME280;40618;51.166;10.322;2022-10-22T00:00:11;96960.69;;;12.53;89.34
26865;BME280;40618;51.166;10.322;2022-10-22T00:02:40;96958.94;;;12.54;89.24
26865;BME280;40618;51.166;10.322;2022-10-22T00:05:06;96966.78;;;12.52;89.21
26865;BME280;40618;51.166;10.322;2022-10-22T00:07:32;96966.94;;;12.49;89.03
26865;BME280;40618;51.166;10.322;2022-10-22T00:09:58;96968.75;;;12.47;89.44
26865;BME280;40618;51.166;10.322;2022-10-22T00:12:24;96963.72;;;12.44;89.17
26865;BME280;40618;51.166;10.322;2022-10-22T00:14:50;96963.84;;;12.41;89.09
26865;BME280;40618;51.166;10.322;2022-10-22T00:17:16;96963.97;;;12.38;89.23
26865;BME280;40618;51.166;10.322;2022-10-22T00:19:42;96953.72;;;12.35;89.22
26865;BME280;40618;51.166;10.322;2022-10-22T00:22:10;96962.41;;;12.34;89.29
26865;BME280;40618;51.166;10.322;2022-10-22T00:24:37;96978.97;;;12.31;89.32
26865;BME280;40618;51.166;10.322;2022-10-22T00:27:04;96997.22;;;12.30;89.12
26865;BME280;40618;51.166;10.322;2022-10-22T00:29:30;96996.47;;;12.28;89.10
26865;BME280;40618;51.166;10.322;2022-10-22T00:31:57;97002.47;;;12.28;89.21
26865;BME280;40618;51.166;10.322;2022-10-22T00:34:24;97002.41;;;12.30;89.19
26865;BME280;40618;51.166;10.322;2022-10-22T00:36:51;97002.47;;;12.28;89.15
26865;BME280;40618;51.166;10.322;2022-10-22T00:39:19;97005.94;;;12.29;89.11
26865;BME280;40618;51.166;10.322;2022-10-22T00:41:48;96995.50;;;12.30;89.27
26865;BME280;40618;51.166;10.322;2022-10-22T00:50:52;97001.28;;;12.35;89.16
26865;BME280;40618;51.166;10.322;2022-10-22T00:53:42;97011.69;;;12.35;89.30
26865;BME280;40618;51.166;10.322;2022-10-22T00:56:13;97011.75;;;12.34;89.15
26865;BME280;40618;51.166;10.322;2022-10-22T00:58:43;97013.44;;;12.35;89.32
26865;BME280;40618;51.166;10.322;2022-10-22T01:01:16;97013.44;;;12.35;89.49
26865;BME280;40618;51.166;10.322;2022-10-22T01:03:44;97018.63;;;12.35;89.55
26865;BME280;40618;51.166;10.322;2022-10-22T01:06:14;97022.06;;;12.35;89.24
26865;BME280;40618;51.166;10.322;2022-10-22T01:08:55;97025.44;;;12.38;89.34
26865;BME280;40618;51.166;10.322;2022-10-22T01:23:20;97015.00;;;12.58;89.70
26865;BME280;40618;51.166;10.322;2022-10-22T01:31:31;96987.75;;;12.67;89.64
26865;BME280;40618;51.166;10.322;2022-10-22T01:34:01;96979.97;;;12.67;89.50
26865;BME280;40618;51.166;10.322;2022-10-22T01:36:31;96977.34;;;12.68;89.68
26865;BME280;40618;51.166;10.322;2022-10-22T01:39:00;96975.56;;;12.69;89.92
26865;BME280;40618;51.166;10.322;2022-10-22T01:41:28;96973.72;;;12.71;89.69
26865;BME280;40618;51.166;10.322;2022-10-22T01:43:54;96966.78;;;12.72;89.71
26865;BME280;40618;51.166;10.322;2022-10-22T01:46:21;96970.28;;;12.70;89.57
26865;BME280;40618;51.166;10.322;2022-10-22T01:52:24;96962.28;;;12.75;89.73
26865;BME280;40618;51.166;10.322;2022-10-22T01:55:32;96963.97;;;12.76;89.82
26865;BME280;40618;51.166;10.322;2022-10-22T02:00:59;96956.03;;;12.79;89.95
26865;BME280;40618;51.166;10.322;2022-10-22T02:03:55;96960.38;;;12.79;89.67
26865;BME280;40618;51.166;10.322;2022-10-22T02:06:44;96960.31;;;12.80;89.78
26865;BME280;40618;51.166;10.322;2022-10-22T02:09:16;96963.78;;;12.81;89.92
26865;BME280;40618;51.166;10.322;2022-10-22T02:11:44;96964.59;;;12.81;89.92
26865;BME280;40618;51.166;10.322;2022-10-22T02:14:12;96966.38;;;12.81;89.73
26865;BME280;40618;51.166;10.322;2022-10-22T02:16:43;96968.09;;;12.80;89.93
26865;BME280;40618;51.166;10.322;2022-10-22T02:19:35;96968.09;;;12.80;89.81
26865;BME280;40618;51.166;10.322;2022-10-22T02:22:06;96969.78;;;12.81;89.73
26865;BME280;40618;51.166;10.322;2022-10-22T02:24:32;96972.47;;;12.80;89.40
26865;BME280;40618;51.166;10.322;2022-10-22T02:30:07;96966.41;;;12.79;89.81
26865;BME280;40618;51.166;10.322;2022-10-22T02:33:06;96968.19;;;12.79;89.66
26865;BME280;40618;51.166;10.322;2022-10-22T02:35:39;96970.69;;;12.80;90.02
26865;BME280;40618;51.166;10.322;2022-10-22T02:38:06;96971.56;;;12.81;89.86
26865;BME280;40618;51.166;10.322;2022-10-22T02:40:33;96977.50;;;12.83;89.56
26865;BME280;40618;51.166;10.322;2022-10-22T02:42:59;96974.91;;;12.83;89.76
26865;BME280;40618;51.166;10.322;2022-10-22T02:45:27;96979.13;;;12.85;89.80
26865;BME280;40618;51.166;10.322;2022-10-22T02:47:53;96986.09;;;12.85;89.74
26865;BME280;40618;51.166;10.322;2022-10-22T02:50:19;96994.72;;;12.85;89.83
26865;BME280;40618;51.166;10.322;2022-10-22T02:52:44;96992.13;;;12.85;89.65
26865;BME280;40618;51.166;10.322;2022-10-22T02:55:10;96990.34;;;12.86;89.76
26865;BME280;40618;51.166;10.322;2022-10-22T02:57:35;96982.50;;;12.88;90.03
26865;BME280;40618;51.166;10.322;2022-10-22T03:00:02;96984.19;;;12.89;89.70
26865;BME280;40618;51.166;10.322;2022-10-22T03:02:29;96983.28;;;12.90;89.94
26865;BME280;40618;51.166;10.322;2022-10-22T03:04:54;96984.19;;;12.89;89.75
26865;BME280;40618;51.166;10.322;2022-10-22T03:07:20;96988.53;;;12.88;89.76
26865;BME280;40618;51.166;10.322;2022-10-22T03:09:45;96980.75;;;12.88;89.87
26865;BME280;40618;51.166;10.322;2022-10-22T03:12:11;96977.31;;;12.88;89.86
26865;BME280;40618;51.166;10.322;2022-10-22T03:14:36;96982.50;;;12.88;89.98
26865;BME280;40618;51.166;10.322;2022-10-22T03:17:02;96985.16;;;12.86;90.12
26865;BME280;40618;51.166;10.322;2022-10-22T03:19:27;96981.72;;;12.85;89.77
26865;BME280;40618;51.166;10.322;2022-10-22T03:22:00;96979.13;;;12.85;89.63
26865;BME280;40618;51.166;10.322;2022-10-22T03:24:34;96988.63;;;12.86;89.99
26865;BME280;40618;51.166;10.322;2022-10-22T03:27:02;96997.31;;;12.85;89.84
26865;BME280;40618;51.166;10.322;2022-10-22T03:29:30;97002.59;;;12.84;90.02
26865;BME280;40618;51.166;10.322;2022-10-22T03:31:59;97004.41;;;12.82;89.60
26865;BME280;40618;51.166;10.322;2022-10-22T03:34:25;97013.06;;;12.82;89.92
26865;BME280;40618;51.166;10.322;2022-10-22T03:36:51;97015.66;;;12.82;89.79
26865;BME280;40618;51.166;10.322;2022-10-22T03:39:18;97022.50;;;12.83;89.97
26865;BME280;40618;51.166;10.322;2022-10-22T03:41:46;97029.41;;;12.84;90.02
26865;BME280;40618;51.166;10.322;2022-10-22T03:44:14;97031.09;;;12.85;89.98
26865;BME280;40618;51.166;10.322;2022-10-22T03:46:41;97021.53;;;12.86;89.86
26865;BME280;40618;51.166;10.322;2022-10-22T03:49:07;97024.09;;;12.88;89.97
26865;BME280;40618;51.166;10.322;2022-10-22T03:51:32;97032.72;;;12.88;90.10
26865;BME280;40618;51.166;10.322;2022-10-22T03:53:58;97035.31;;;12.88;90.11
26865;BME280;40618;51.166;10.322;2022-10-22T03:56:24;97054.34;;;12.89;90.19
26865;BME280;40618;51.166;10.322;2022-10-22T03:58:50;97056.03;;;12.90;89.68
26865;BME280;40618;51.166;10.322;2022-10-22T04:01:16;97063.81;;;12.90;90.10
26865;BME280;40618;51.166;10.322;2022-10-22T04:03:41;97074.22;;;12.90;90.04
26865;BME280;40618;51.166;10.322;2022-10-22T04:06:10;97069.91;;;12.89;90.08
26865;BME280;40618;51.166;10.322;2022-10-22T04:08:40;97065.50;;;12.91;90.15
26865;BME280;40618;51.166;10.322;2022-10-22T04:11:07;97064.72;;;12.89;90.06
26865;BME280;40618;51.166;10.322;2022-10-22T04:13:33;97075.91;;;12.91;89.95
26865;BME280;40618;51.166;10.322;2022-10-22T04:16:19;97062.91;;;12.91;89.93
26865;BME280;40618;51.166;10.322;2022-10-22T04:18:47;97066.41;;;12.90;89.94
26865;BME280;40618;51.166;10.322;2022-10-22T04:21:16;97060.31;;;12.91;90.06
26865;BME280;40618;51.166;10.322;2022-10-22T04:23:44;97062.00;;;12.92;89.99
26865;BME280;40618;51.166;10.322;2022-10-22T04:26:11;97063.66;;;12.93;89.91
26865;BME280;40618;51.166;10.322;2022-10-22T04:28:37;97063.66;;;12.93;90.08
26865;BME280;40618;51.166;10.322;2022-10-22T04:31:10;97048.09;;;12.93;90.21
26865;BME280;40618;51.166;10.322;2022-10-22T04:33:38;97044.66;;;12.92;89.76
26865;BME280;40618;51.166;10.322;2022-10-22T04:36:09;97042.88;;;12.93;89.93
26865;BME280;40618;51.166;10.322;2022-10-22T04:38:40;97042.06;;;12.92;90.17
26865;BME280;40618;51.166;10.322;2022-10-22T04:41:19;97033.47;;;12.90;89.71
26865;BME280;40618;51.166;10.322;2022-10-22T04:43:47;97045.00;;;12.84;89.66
26865;BME280;40618;51.166;10.322;2022-10-22T04:46:14;97045.28;;;12.78;89.65
26865;BME280;40618;51.166;10.322;2022-10-22T04:48:42;97038.47;;;12.76;89.96
26865;BME280;40618;51.166;10.322;2022-10-22T04:51:20;97045.47;;;12.74;89.90
26865;BME280;40618;51.166;10.322;2022-10-22T04:53:47;97048.06;;;12.74;90.00
26865;BME280;40618;51.166;10.322;2022-10-22T04:56:19;97055.78;;;12.75;89.96
26865;BME280;40618;51.166;10.322;2022-10-22T04:58:50;97050.59;;;12.75;90.00
26865;BME280;40618;51.166;10.322;2022-10-22T05:01:31;97045.38;;;12.77;90.15
26865;BME280;40618;51.166;10.322;2022-10-22T05:04:00;97050.47;;;12.78;90.08
26865;BME280;40618;51.166;10.322;2022-10-22T05:06:29;97044.44;;;12.78;90.06
26865;BME280;40618;51.166;10.322;2022-10-22T05:09:02;97056.50;;;12.79;89.97
26865;BME280;40618;51.166;10.322;2022-10-22T05:11:37;97054.00;;;12.77;90.24
26865;BME280;40618;51.166;10.322;2022-10-22T05:14:06;97056.59;;;12.77;89.97
26865;BME280;40618;51.166;10.322;2022-10-22T05:16:33;97062.63;;;12.78;90.24
26865;BME280;40618;51.166;10.322;2022-10-22T05:19:00;97057.41;;;12.78;90.26
26865;BME280;40618;51.166;10.322;2022-10-22T05:21:27;97062.53;;;12.79;90.19
26865;BME280;40618;51.166;10.322;2022-10-22T05:23:54;97060.81;;;12.80;90.14
26865;BME280;40618;51.166;10.322;2022-10-22T05:26:21;97064.22;;;12.80;90.20
26865;BME280;40618;51.166;10.322;2022-10-22T05:28:49;97072.88;;;12.81;90.01
26865;BME280;40618;51.166;10.322;2022-10-22T05:31:16;97080.69;;;12.81;90.33
26865;BME280;40618;51.166;10.322;2022-10-22T05:33:43;97073.72;;;12.81;90.08
26865;BME280;40618;51.166;10.322;2022-10-22T05:36:15;97078.91;;;12.81;90.18
26865;BME280;40618;51.166;10.322;2022-10-22T05:38:43;97071.13;;;12.81;90.08
26865;BME280;40618;51.166;10.322;2022-10-22T05:41:11;97073.72;;;12.81;90.33
26865;BME280;40618;51.166;10.322;2022-10-22T05:43:39;97074.47;;;12.83;90.32
26865;BME280;40618;51.166;10.322;2022-10-22T05:46:07;97089.25;;;12.83;90.41
26865;BME280;40618;51.166;10.322;2022-10-22T05:48:35;97080.63;;;12.82;90.00
26865;BME280;40618;51.166;10.322;2022-10-22T05:51:08;97072.81;;;12.82;90.26
26865;BME280;40618;51.166;10.322;2022-10-22T05:53:38;97077.16;;;12.82;90.20
26865;BME280;40618;51.166;10.322;2022-10-22T05:56:13;97086.72;;;12.81;90.16
26865;BME280;40618;51.166;10.322;2022-10-22T05:58:41;97088.41;;;12.82;90.42
26865;BME280;40618;51.166;10.322;2022-10-22T06:01:14;97088.41;;;12.82;90.17
26865;BME280;40618;51.166;10.322;2022-10-22T06:03:43;97090.22;;;12.80;90.39
26865;BME280;40618;51.166;10.322;2022-10-22T06:06:19;97085.88;;;12.81;90.29
26865;BME280;40618;51.166;10.322;2022-10-22T06:08:50;97081.59;;;12.80;90.09
26865;BME280;40618;51.166;10.322;2022-10-22T06:11:18;97088.47;;;12.81;90.20
26865;BME280;40618;51.166;10.322;2022-10-22T06:13:45;97103.22;;;12.80;90.17
26865;BME280;40618;51.166;10.322;2022-10-22T06:16:12;97102.38;;;12.80;89.77
26865;BME280;40618;51.166;10.322;2022-10-22T06:18:38;97099.84;;;12.78;90.09
26865;BME280;40618;51.166;10.322;2022-10-22T06:21:12;97106.72;;;12.79;90.01
26865;BME280;40618;51.166;10.322;2022-10-22T06:23:40;97102.44;;;12.78;90.23
26865;BME280;40618;51.166;10.322;2022-10-22T06:26:07;97110.31;;;12.77;90.18
26865;BME280;40618;51.166;10.322;2022-10-22T06:28:34;97107.81;;;12.74;90.09
26865;BME280;40618;51.166;10.322;2022-10-22T06:31:01;97110.50;;;12.72;90.13
26865;BME280;40618;51.166;10.322;2022-10-22T06:33:29;97121.78;;;12.71;90.10
26865;BME280;40618;51.166;10.322;2022-10-22T06:36:04;97127.91;;;12.70;90.23
26865;BME280;40618;51.166;10.322;2022-10-22T06:38:31;97139.22;;;12.69;89.78
26865;BME280;40618;51.166;10.322;2022-10-22T06:41:02;97135.72;;;12.70;89.81
26865;BME280;40618;51.166;10.322;2022-10-22T06:43:34;97137.38;;;12.71;90.24
26865;BME280;40618;51.166;10.322;2022-10-22T06:46:01;97138.31;;;12.70;90.18
26865;BME280;40618;51.166;10.322;2022-10-22T06:48:29;97140.91;;;12.70;90.05
26865;BME280;40618;51.166;10.322;2022-10-22T06:50:55;97138.38;;;12.68;89.84
26865;BME280;40618;51.166;10.322;2022-10-22T06:53:24;97147.97;;;12.66;90.00
26865;BME280;40618;51.166;10.322;2022-10-22T06:55:50;97155.06;;;12.63;89.83
26865;BME280;40618;51.166;10.322;2022-10-22T06:58:15;97167.22;;;12.62;89.96
26865;BME280;40618;51.166;10.322;2022-10-22T07:00:41;97176.69;;;12.63;90.16
26865;BME280;40618;51.166;10.322;2022-10-22T07:03:11;97181.97;;;12.62;90.01
26865;BME280;40618;51.166;10.322;2022-10-22T07:05:38;97191.56;;;12.60;90.03
26865;BME280;40618;51.166;10.322;2022-10-22T07:08:04;97195.84;;;12.61;89.93
26865;BME280;40618;51.166;10.322;2022-10-22T07:10:30;97208.84;;;12.61;90.05
26865;BME280;40618;51.166;10.322;2022-10-22T07:12:56;97208.00;;;12.60;90.00
26865;BME280;40618;51.166;10.322;2022-10-22T07:15:23;97209.81;;;12.58;90.00
26865;BME280;40618;51.166;10.322;2022-10-22T07:17:49;97211.63;;;12.56;90.05
26865;BME280;40618;51.166;10.322;2022-10-22T07:20:18;97221.22;;;12.54;89.76
26865;BME280;40618;51.166;10.322;2022-10-22T07:22:45;97221.22;;;12.54;89.94
26865;BME280;40618;51.166;10.322;2022-10-22T07:25:11;97227.41;;;12.51;90.09
26865;BME280;40618;51.166;10.322;2022-10-22T07:27:36;97235.19;;;12.51;89.97
26865;BME280;40618;51.166;10.322;2022-10-22T07:30:03;97254.19;;;12.52;89.95
26865;BME280;40618;51.166;10.322;2022-10-22T07:32:29;97253.38;;;12.51;89.90
26865;BME280;40618;51.166;10.322;2022-10-22T07:34:54;97251.75;;;12.49;89.64
26865;BME280;40618;51.166;10.322;2022-10-22T07:37:20;97253.50;;;12.48;89.87
26865;BME280;40618;51.166;10.322;2022-10-22T07:39:47;97260.38;;;12.49;89.91
26865;BME280;40618;51.166;10.322;2022-10-22T07:42:13;97262.06;;;12.50;89.94
26865;BME280;40618;51.166;10.322;2022-10-22T07:44:39;97261.09;;;12.53;89.74
26865;BME280;40618;51.166;10.322;2022-10-22T07:47:04;97273.09;;;12.56;89.96
26865;BME280;40618;51.166;10.322;2022-10-22T07:49:30;97266.13;;;12.58;89.84
26865;BME280;40618;51.166;10.322;2022-10-22T07:51:55;97253.97;;;12.58;90.07
26865;BME280;40618;51.166;10.322;2022-10-22T07:54:22;97266.88;;;12.60;89.89
26865;BME280;40618;51.166;10.322;2022-10-22T07:56:48;97262.47;;;12.62;89.86
26865;BME280;40618;51.166;10.322;2022-10-22T07:59:13;97264.16;;;12.63;89.80
26865;BME280;40618;51.166;10.322;2022-10-22T08:01:39;97268.50;;;12.62;89.80
26865;BME280;40618;51.166;10.322;2022-10-22T08:04:04;97271.03;;;12.64;89.83
26865;BME280;40618;51.166;10.322;2022-10-22T08:06:33;97274.53;;;12.63;89.69
26865;BME280;40618;51.166;10.322;2022-10-22T08:08:59;97278.00;;;12.63;89.76
26865;BME280;40618;51.166;10.322;2022-10-22T08:11:24;97283.13;;;12.65;89.76
26865;BME280;40618;51.166;10.322;2022-10-22T08:13:51;97276.16;;;12.65;89.50
26865;BME280;40618;51.166;10.322;2022-10-22T08:16:17;97275.25;;;12.66;89.46
26865;BME280;40618;51.166;10.322;2022-10-22T08:18:43;97286.44;;;12.68;89.59
26865;BME280;40618;51.166;10.322;2022-10-22T08:21:10;97286.44;;;12.68;89.55
26865;BME280;40618;51.166;10.322;2022-10-22T08:23:37;97287.22;;;12.70;89.56
26865;BME280;40618;51.166;10.322;2022-10-22T08:26:03;97284.56;;;12.72;89.76
26865;BME280;40618;51.166;10.322;2022-10-22T08:28:29;97280.91;;;12.76;89.42
26865;BME280;40618;51.166;10.322;2022-10-22T08:30:57;97287.75;;;12.79;89.49
26865;BME280;40618;51.166;10.322;2022-10-22T08:33:22;97287.69;;;12.80;89.48
26865;BME280;40618;51.166;10.322;2022-10-22T08:35:51;97291.06;;;12.82;89.60
26865;BME280;40618;51.166;10.322;2022-10-22T08:38:18;97289.31;;;12.83;89.24
26865;BME280;40618;51.166;10.322;2022-10-22T08:40:47;97293.66;;;12.82;89.36
26865;BME280;40618;51.166;10.322;2022-10-22T08:43:24;97290.22;;;12.82;89.36
26865;BME280;40618;51.166;10.322;2022-10-22T08:46:25;97292.94;;;12.79;89.14
26865;BME280;40618;51.166;10.322;2022-10-22T08:49:16;97299.91;;;12.78;89.13
26865;BME280;40618;51.166;10.322;2022-10-22T08:51:45;97304.06;;;12.82;89.34
26865;BME280;40618;51.166;10.322;2022-10-22T08:54:22;97305.69;;;12.85;89.49
26865;BME280;40618;51.166;10.322;2022-10-22T08:59:47;97313.41;;;12.86;89.28
26865;BME280;40618;51.166;10.322;2022-10-22T09:08:35;97325.84;;;13.00;89.10
26865;BME280;40618;51.166;10.322;2022-10-22T09:11:16;97324.88;;;13.03;89.20
26865;BME280;40618;51.166;10.322;2022-10-22T09:13:48;97318.63;;;13.07;88.69
26865;BME280;40618;51.166;10.322;2022-10-22T09:16:24;97319.38;;;13.09;88.80
26865;BME280;40618;51.166;10.322;2022-10-22T09:24:44;97325.97;;;13.18;88.77
26865;BME280;40618;51.166;10.322;2022-10-22T09:27:20;97313.81;;;13.18;88.58
26865;BME280;40618;51.166;10.322;2022-10-22T09:29:50;97322.50;;;13.17;89.06
26865;BME280;40618;51.166;10.322;2022-10-22T09:32:17;97327.72;;;13.17;88.92
26865;BME280;40618;51.166;10.322;2022-10-22T09:34:44;97320.84;;;13.16;89.01
26865;BME280;40618;51.166;10.322;2022-10-22T09:37:11;97326.03;;;13.16;88.54
26865;BME280;40618;51.166;10.322;2022-10-22T09:39:50;97334.59;;;13.18;88.86
26865;BME280;40618;51.166;10.322;2022-10-22T09:42:18;97336.31;;;13.19;88.74
26865;BME280;40618;51.166;10.322;2022-10-22T09:44:51;97334.53;;;13.20;88.91
26865;BME280;40618;51.166;10.322;2022-10-22T09:47:36;97336.16;;;13.23;88.61
26865;BME280;40618;51.166;10.322;2022-10-22T09:50:28;97338.59;;;13.27;89.06
26865;BME280;40618;51.166;10.322;2022-10-22T09:53:17;97338.38;;;13.32;88.64
26865;BME280;40618;51.166;10.322;2022-10-22T09:55:52;97336.53;;;13.34;88.53
26865;BME280;40618;51.166;10.322;2022-10-22T09:58:19;97340.00;;;13.34;88.95
26865;BME280;40618;51.166;10.322;2022-10-22T10:00:51;97339.13;;;13.34;89.00
26865;BME280;40618;51.166;10.322;2022-10-22T10:03:26;97349.53;;;13.35;88.46
26865;BME280;40618;51.166;10.322;2022-10-22T10:05:57;97345.16;;;13.36;88.89
26865;BME280;40618;51.166;10.322;2022-10-22T10:08:24;97346.00;;;13.36;88.79
26865;BME280;40618;51.166;10.322;2022-10-22T10:10:53;97345.94;;;13.38;88.44
26865;BME280;40618;51.166;10.322;2022-10-22T10:16:51;97344.19;;;13.39;88.78
26865;BME280;40618;51.166;10.322;2022-10-22T10:22:52;97341.44;;;13.42;88.45
26865;BME280;40618;51.166;10.322;2022-10-22T10:25:52;97340.41;;;13.46;88.75
26865;BME280;40618;51.166;10.322;2022-10-22T10:34:47;97345.88;;;13.60;88.50
26865;BME280;40618;51.166;10.322;2022-10-22T10:37:23;97346.63;;;13.62;88.54
26865;BME280;40618;51.166;10.322;2022-10-22T10:43:13;97346.44;;;13.67;88.64
26865;BME280;40618;51.166;10.322;2022-10-22T10:49:23;97350.16;;;13.80;88.58
26865;BME280;40618;51.166;10.322;2022-10-22T11:00:20;97347.00;;;13.93;87.89
26865;BME280;40618;51.166;10.322;2022-10-22T11:05:53;97346.59;;;14.02;88.20
26865;BME280;40618;51.166;10.322;2022-10-22T11:08:28;97352.69;;;14.01;87.71
26865;BME280;40618;51.166;10.322;2022-10-22T11:13:52;97357.00;;;14.02;88.18
26865;BME280;40618;51.166;10.322;2022-10-22T11:16:34;97370.66;;;14.07;87.80
26865;BME280;40618;51.166;10.322;2022-10-22T11:19:35;97358.41;;;14.09;88.14
26865;BME280;40618;51.166;10.322;2022-10-22T11:22:18;97367.75;;;14.13;87.82
26865;BME280;40618;51.166;10.322;2022-10-22T11:25:05;97355.38;;;14.18;87.77
26865;BME280;40618;51.166;10.322;2022-10-22T11:27:47;97350.09;;;14.20;87.98
26865;BME280;40618;51.166;10.322;2022-10-22T11:30:20;97342.16;;;14.23;87.48
26865;BME280;40618;51.166;10.322;2022-10-22T11:32:51;97343.78;;;14.26;87.69
26865;BME280;40618;51.166;10.322;2022-10-22T11:35:26;97342.78;;;14.28;87.65
26865;BME280;40618;51.166;10.322;2022-10-22T11:37:56;97346.16;;;14.30;87.74
26865;BME280;40618;51.166;10.322;2022-10-22T11:40:35;97344.53;;;14.28;87.78
26865;BME280;40618;51.166;10.322;2022-10-22T11:43:25;97347.00;;;14.31;87.76
26865;BME280;40618;51.166;10.322;2022-10-22T11:48:40;97344.88;;;14.39;87.58
26865;BME280;40618;51.166;10.322;2022-10-22T11:51:30;97355.19;;;14.42;87.08
26865;BME280;40618;51.166;10.322;2022-10-22T11:54:01;97353.41;;;14.43;87.12
26865;BME280;40618;51.166;10.322;2022-10-22T11:56:51;97348.41;;;14.38;87.00
26865;BME280;40618;51.166;10.322;2022-10-22T11:59:37;97347.47;;;14.39;87.12
26865;BME280;40618;51.166;10.322;2022-10-22T12:02:22;97357.06;;;14.38;86.79
26865;BME280;40618;51.166;10.322;2022-10-22T12:08:37;97356.00;;;14.43;86.80
26865;BME280;40618;51.166;10.322;2022-10-22T12:11:06;97356.56;;;14.49;87.11
26865;BME280;40618;51.166;10.322;2022-10-22T12:16:35;97352.00;;;14.54;86.84
26865;BME280;40618;51.166;10.322;2022-10-22T12:19:06;97351.56;;;14.64;86.52
26865;BME280;40618;51.166;10.322;2022-10-22T12:21:37;97356.41;;;14.71;86.75
26865;BME280;40618;51.166;10.322;2022-10-22T12:24:06;97345.00;;;14.74;86.30
26865;BME280;40618;51.166;10.322;2022-10-22T12:26:36;97350.84;;;14.79;86.74
26865;BME280;40618;51.166;10.322;2022-10-22T12:29:09;97349.88;;;14.80;86.47
26865;BME280;40618;51.166;10.322;2022-10-22T12:31:38;97347.22;;;14.82;86.65
26865;BME280;40618;51.166;10.322;2022-10-22T12:34:14;97350.44;;;14.87;85.91
26865;BME280;40618;51.166;10.322;2022-10-22T12:36:43;97339.19;;;14.86;85.77
26865;BME280;40618;51.166;10.322;2022-10-22T12:39:16;97342.84;;;14.82;86.01
26865;BME280;40618;51.166;10.322;2022-10-22T12:41:44;97338.72;;;14.78;85.80
26865;BME280;40618;51.166;10.322;2022-10-22T12:44:13;97325.84;;;14.75;85.64
26865;BME280;40618;51.166;10.322;2022-10-22T12:46:44;97326.44;;;14.80;86.16
26865;BME280;40618;51.166;10.322;2022-10-22T12:49:20;97333.25;;;14.83;85.81
26865;BME280;40618;51.166;10.322;2022-10-22T12:51:48;97333.97;;;14.86;85.72
26865;BME280;40618;51.166;10.322;2022-10-22T12:56:52;97331.50;;;14.83;85.59
26865;BME280;40618;51.166;10.322;2022-10-22T12:59:24;97332.25;;;14.85;85.56
26865;BME280;40618;51.166;10.322;2022-10-22T13:01:53;97332.88;;;14.91;85.42
26865;BME280;40618;51.166;10.322;2022-10-22T13:04:21;97340.41;;;14.97;85.58
26865;BME280;40618;51.166;10.322;2022-10-22T13:09:42;97337.41;;;15.04;85.34
26865;BME280;40618;51.166;10.322;2022-10-22T13:12:11;97327.91;;;15.03;84.83
26865;BME280;40618;51.166;10.322;2022-10-22T13:14:42;97330.59;;;15.02;85.29
26865;BME280;40618;51.166;10.322;2022-10-22T13:27:43;97331.81;;;14.95;84.53
26865;BME280;40618;51.166;10.322;2022-10-22T13:32:57;97334.44;;;14.95;84.86
26865;BME280;40618;51.166;10.322;2022-10-22T13:35:27;97338.66;;;14.97;84.82
26865;BME280;40618;51.166;10.322;2022-10-22T13:37:58;97327.38;;;14.97;84.58
26865;BME280;40618;51.166;10.322;2022-10-22T13:40:25;97335.97;;;14.99;84.40
26865;BME280;40618;51.166;10.322;2022-10-22T13:42:51;97331.53;;;15.01;84.17
26865;BME280;40618;51.166;10.322;2022-10-22T13:45:17;97336.56;;;15.04;84.30
26865;BME280;40618;51.166;10.322;2022-10-22T13:47:47;97333.91;;;15.05;84.38
26865;BME280;40618;51.166;10.322;2022-10-22T13:50:17;97335.50;;;15.08;84.36
26865;BME280;40618;51.166;10.322;2022-10-22T13:52:45;97336.25;;;15.10;84.61
26865;BME280;40618;51.166;10.322;2022-10-22T13:58:18;97339.41;;;15.17;83.64
26865;BME280;40618;51.166;10.322;2022-10-22T14:00:54;97343.88;;;15.15;83.26
26865;BME280;40618;51.166;10.322;2022-10-22T14:03:27;97348.38;;;15.11;83.47
26865;BME280;40618;51.166;10.322;2022-10-22T14:05:57;97348.53;;;15.08;83.39
26865;BME280;40618;51.166;10.322;2022-10-22T14:08:24;97349.53;;;15.05;83.56
26865;BME280;40618;51.166;10.322;2022-10-22T14:10:51;97355.75;;;15.03;83.29
26865;BME280;40618;51.166;10.322;2022-10-22T14:13:18;97358.44;;;15.01;83.56
26865;BME280;40618;51.166;10.322;2022-10-22T14:15:47;97355.91;;;15.00;83.59
26865;BME280;40618;51.166;10.322;2022-10-22T14:18:22;97356.66;;;15.02;83.40
26865;BME280;40618;51.166;10.322;2022-10-22T14:20:54;97352.22;;;15.04;83.21
26865;BME280;40618;51.166;10.322;2022-10-22T14:23:24;97356.56;;;15.03;83.33
26865;BME280;40618;51.166;10.322;2022-10-22T14:25:53;97360.97;;;15.03;83.62
26865;BME280;40618;51.166;10.322;2022-10-22T14:28:19;97348.91;;;15.00;83.53
26865;BME280;40618;51.166;10.322;2022-10-22T14:30:45;97361.13;;;15.00;83.01
26865;BME280;40618;51.166;10.322;2022-10-22T14:33:17;97361.94;;;15.00;83.53
26865;BME280;40618;51.166;10.322;2022-10-22T14:35:49;97360.25;;;14.99;83.35
26865;BME280;40618;51.166;10.322;2022-10-22T14:38:15;97357.59;;;15.01;83.18
26865;BME280;40618;51.166;10.322;2022-10-22T14:40:41;97361.03;;;15.01;83.45
26865;BME280;40618;51.166;10.322;2022-10-22T14:43:28;97360.25;;;14.99;83.49
26865;BME280;40618;51.166;10.322;2022-10-22T14:45:55;97360.25;;;14.99;83.27
26865;BME280;40618;51.166;10.322;2022-10-22T14:48:22;97356.91;;;14.97;83.34
26865;BME280;40618;51.166;10.322;2022-10-22T14:50:48;97353.50;;;14.95;83.10
26865;BME280;40618;51.166;10.322;2022-10-22T14:53:15;97362.28;;;14.94;83.32
26865;BME280;40618;51.166;10.322;2022-10-22T14:55:41;97363.19;;;14.93;83.29
26865;BME280;40618;51.166;10.322;2022-10-22T14:58:09;97363.19;;;14.93;83.31
26865;BME280;40618;51.166;10.322;2022-10-22T15:00:36;97371.75;;;14.95;83.00